Other Surface Observations
Issued by NWS Missoula, MT

Home | Current Version | Previous Version | Text Only | Print | Product List | Glossary On
Versions: 1 2 3 4 5 6 7 8 9 10 11 12 13 14 15 16 17 18 19 20 21 22 23 24 25 26 27 28 29 30 31 32 33 34 35 36 37 38 39 40 41 42 43 44 45 46 47 48 49 50
000
SXUS55 KMSO 061553
OSOMSO
MONTANA AWOS SUMMARY
NATIONAL WEATHER SERVICE MISSOULA MT
952 AM MDT MON JUL 6 2015

Montana AWOS Reports

LAUREL      |K6S8 061535Z AUTO 00000KT 15SM 14/08 A3025 RMK AO1 T01440078
TWIN BRIDGES|K7S1 061535Z AUTO 32005KT 40SM 14/07 A3022 RMK AO1 T01440072
ROUNDUP     |KRPX 061535Z AUTO 00000KT 40SM 15/08 A3017 RMK AO1 T01500083
MALTA       |KM75 061535Z AUTO 00000KT 25SM 18/11 A3018 RMK AO1 T01780111




USA.gov is the U.S. government's official web portal to all federal, state and local government web resources and services.